createdAt,value
2022-09-27T00:00:43.017Z,14.30
2022-09-27T00:03:10.383Z,11.90
2022-09-27T00:05:37.177Z,12.50
2022-09-27T00:08:04.262Z,12.00
2022-09-27T00:10:31.568Z,12.30
2022-09-27T00:12:58.297Z,13.80
2022-09-27T00:15:24.843Z,11.90
2022-09-27T00:17:52.419Z,11.90
2022-09-27T00:20:20.469Z,11.90
2022-09-27T00:22:48.172Z,11.90
2022-09-27T00:25:15.243Z,11.90
2022-09-27T00:27:41.953Z,11.90
2022-09-27T00:30:09.220Z,11.90
2022-09-27T00:32:35.933Z,11.90
2022-09-27T00:35:02.507Z,11.80
2022-09-27T00:37:29.175Z,11.80
2022-09-27T00:39:55.734Z,11.80
2022-09-27T00:42:22.297Z,12.10
2022-09-27T00:45:02.923Z,11.70
2022-09-27T00:47:38.949Z,11.70
2022-09-27T00:50:13.819Z,11.70
2022-09-27T00:53:03.545Z,11.60
2022-09-27T00:55:37.098Z,11.50
2022-09-27T00:58:05.008Z,11.50
2022-09-27T01:00:31.856Z,11.50
2022-09-27T01:02:58.752Z,11.50
2022-09-27T01:05:26.986Z,12.80
2022-09-27T01:07:56.635Z,11.40
2022-09-27T01:10:25.497Z,11.40
2022-09-27T01:12:59.948Z,11.40
2022-09-27T01:15:45.062Z,11.40
2022-09-27T01:18:11.867Z,11.30
2022-09-27T01:20:50.394Z,11.30
2022-09-27T01:23:42.876Z,11.30
2022-09-27T01:26:09.443Z,11.30
2022-09-27T01:28:48.269Z,11.20
2022-09-27T01:31:38.235Z,11.20
2022-09-27T01:34:07.843Z,11.30
2022-09-27T01:36:37.157Z,11.30
2022-09-27T01:39:21.394Z,11.30
2022-09-27T01:41:53.837Z,11.30
2022-09-27T01:44:20.368Z,11.30
2022-09-27T01:46:50.918Z,11.30
2022-09-27T01:49:18.704Z,11.30
2022-09-27T01:51:47.327Z,11.30
2022-09-27T01:54:17.245Z,11.30
2022-09-27T01:56:47.643Z,11.20
2022-09-27T01:59:49.529Z,11.10
2022-09-27T02:02:17.728Z,11.10
2022-09-27T02:04:44.763Z,10.90
2022-09-27T02:07:14.046Z,12.60
2022-09-27T02:09:53.023Z,11.00
2022-09-27T02:12:23.018Z,10.90
2022-09-27T02:14:57.865Z,11.00
2022-09-27T02:17:39.729Z,11.00
2022-09-27T02:20:12.269Z,11.00
2022-09-27T02:22:41.692Z,10.90
2022-09-27T02:25:26.921Z,10.90
2022-09-27T02:27:56.513Z,10.90
2022-09-27T02:30:23.143Z,10.90
2022-09-27T02:32:49.780Z,12.50
2022-09-27T02:35:16.831Z,11.00
2022-09-27T02:37:43.390Z,11.00
2022-09-27T02:40:10.445Z,10.90
2022-09-27T02:42:37.297Z,10.90
2022-09-27T02:45:05.537Z,11.00
2022-09-27T02:47:32.084Z,11.00
2022-09-27T02:50:16.199Z,11.00
2022-09-27T02:52:53.187Z,10.90
2022-09-27T02:55:38.671Z,10.90
2022-09-27T02:58:08.153Z,11.00
2022-09-27T03:00:53.414Z,10.90
2022-09-27T03:03:39.473Z,10.90
2022-09-27T03:06:13.657Z,11.00
2022-09-27T03:08:41.173Z,11.00
2022-09-27T03:11:07.910Z,11.10
2022-09-27T03:13:45.848Z,11.10
2022-09-27T03:16:23.101Z,11.00
2022-09-27T03:18:49.667Z,11.00
2022-09-27T03:21:16.286Z,11.10
2022-09-27T03:23:43.014Z,11.00
2022-09-27T03:26:12.861Z,11.00
2022-09-27T03:28:39.813Z,11.00
2022-09-27T03:31:06.475Z,11.00
2022-09-27T03:33:33.551Z,11.00
2022-09-27T03:36:00.194Z,10.90
2022-09-27T03:38:26.760Z,11.00
2022-09-27T03:40:53.426Z,11.00
2022-09-27T03:43:20.093Z,11.00
2022-09-27T03:45:47.308Z,10.90
2022-09-27T03:48:14.332Z,11.00
2022-09-27T03:50:40.951Z,10.90
2022-09-27T03:53:07.524Z,10.90
2022-09-27T03:55:35.333Z,11.00
2022-09-27T03:58:02.049Z,11.00
2022-09-27T04:00:28.897Z,11.00
2022-09-27T04:02:55.515Z,11.00
2022-09-27T04:05:22.180Z,11.00
2022-09-27T04:07:49.610Z,11.00
2022-09-27T04:10:16.533Z,12.10
2022-09-27T04:12:43.855Z,10.90
2022-09-27T04:15:11.064Z,10.80
2022-09-27T04:17:38.364Z,10.80
2022-09-27T04:20:05.188Z,10.70
2022-09-27T04:22:31.793Z,10.60
2022-09-27T04:24:58.336Z,9.30
2022-09-27T04:27:24.895Z,10.50
2022-09-27T04:29:51.612Z,10.50
2022-09-27T04:32:18.173Z,10.40
2022-09-27T04:35:03.249Z,10.30
2022-09-27T04:37:29.911Z,10.30
2022-09-27T04:39:56.493Z,10.20
2022-09-27T04:42:23.063Z,11.00
2022-09-27T04:44:49.639Z,10.10
2022-09-27T04:47:17.428Z,10.20
2022-09-27T04:49:43.993Z,10.10
2022-09-27T04:52:10.617Z,10.10
2022-09-27T04:54:38.097Z,10.10
2022-09-27T04:57:05.269Z,10.10
2022-09-27T04:59:31.827Z,10.10
2022-09-27T05:02:01.398Z,10.90
2022-09-27T05:04:28.027Z,10.20
2022-09-27T05:06:57.161Z,10.20
2022-09-27T05:09:24.037Z,10.10
2022-09-27T05:11:50.760Z,10.10
2022-09-27T05:14:17.434Z,10.10
2022-09-27T05:16:44.688Z,10.20
2022-09-27T05:19:11.386Z,10.20
2022-09-27T05:21:38.006Z,10.20
2022-09-27T05:24:04.585Z,10.20
2022-09-27T05:26:31.197Z,10.30
2022-09-27T05:28:57.786Z,10.30
2022-09-27T05:31:25.296Z,10.30
2022-09-27T05:33:52.553Z,11.50
2022-09-27T05:36:19.166Z,10.40
2022-09-27T05:38:46.323Z,10.30
2022-09-27T05:41:13.282Z,10.40
2022-09-27T05:43:39.900Z,10.30
2022-09-27T05:46:06.503Z,10.40
2022-09-27T05:48:33.125Z,10.40
2022-09-27T05:50:59.725Z,10.40
2022-09-27T05:53:26.302Z,10.40
2022-09-27T05:55:52.883Z,10.40
2022-09-27T05:58:19.470Z,10.40
2022-09-27T06:00:46.227Z,10.40
2022-09-27T06:03:13.221Z,10.50
2022-09-27T06:05:40.022Z,10.30
2022-09-27T06:08:08.170Z,10.40
2022-09-27T06:10:35.248Z,10.40
2022-09-27T06:13:02.651Z,10.30
2022-09-27T06:15:29.897Z,10.20
2022-09-27T06:17:56.611Z,10.30
2022-09-27T06:20:23.638Z,10.10
2022-09-27T06:22:50.203Z,10.00
2022-09-27T06:25:16.828Z,10.10
2022-09-27T06:27:44.081Z,10.10
2022-09-27T06:30:14.871Z,10.10
2022-09-27T06:32:44.794Z,10.20
2022-09-27T06:35:11.371Z,10.30
2022-09-27T06:37:37.952Z,10.20
2022-09-27T06:40:04.979Z,10.20
2022-09-27T06:42:31.555Z,10.10
2022-09-27T06:44:58.122Z,10.10
2022-09-27T06:47:26.052Z,10.30
2022-09-27T06:49:52.592Z,10.50
2022-09-27T06:52:19.180Z,10.60
2022-09-27T06:54:45.741Z,10.70
2022-09-27T06:57:32.277Z,10.80
2022-09-27T07:00:21.817Z,10.90
2022-09-27T07:02:48.385Z,11.00
2022-09-27T07:05:15.023Z,10.90
2022-09-27T07:07:42.424Z,10.90
2022-09-27T07:10:10.032Z,11.00
2022-09-27T07:12:37.564Z,11.10
2022-09-27T07:15:05.260Z,11.20
2022-09-27T07:17:32.167Z,11.40
2022-09-27T07:19:58.768Z,11.70
2022-09-27T07:22:25.370Z,11.80
2022-09-27T07:24:51.926Z,11.90
2022-09-27T07:27:18.529Z,11.80
2022-09-27T07:29:45.109Z,11.70
2022-09-27T07:32:11.802Z,11.70
2022-09-27T07:34:38.387Z,11.80
2022-09-27T07:37:05.655Z,11.90
2022-09-27T07:39:32.330Z,11.80
2022-09-27T07:41:59.024Z,12.00
2022-09-27T07:44:25.640Z,12.10
2022-09-27T07:46:52.328Z,12.20
2022-09-27T07:49:18.888Z,12.30
2022-09-27T07:51:45.465Z,12.20
2022-09-27T07:54:12.060Z,12.10
2022-09-27T07:56:38.777Z,12.10
2022-09-27T07:59:05.369Z,12.30
2022-09-27T08:01:32.018Z,12.30
2022-09-27T08:03:58.606Z,12.30
2022-09-27T08:06:25.252Z,12.40
2022-09-27T08:08:51.820Z,12.70
2022-09-27T08:11:19.012Z,12.90
2022-09-27T08:13:46.041Z,12.80
2022-09-27T08:16:14.273Z,12.60
2022-09-27T08:18:41.035Z,11.90
2022-09-27T08:21:07.594Z,11.50
2022-09-27T08:23:34.480Z,11.10
2022-09-27T08:26:01.177Z,10.60
2022-09-27T08:28:27.830Z,10.40
2022-09-27T08:30:54.532Z,10.30
2022-09-27T08:33:21.236Z,10.10
2022-09-27T08:35:47.823Z,9.90
2022-09-27T08:38:14.391Z,9.70
2022-09-27T08:40:44.342Z,9.60
2022-09-27T08:43:32.945Z,9.60
2022-09-27T08:46:18.888Z,9.70
2022-09-27T08:48:47.772Z,9.80
2022-09-27T08:51:14.741Z,10.00
2022-09-27T08:53:41.384Z,10.80
2022-09-27T08:56:08.908Z,11.40
2022-09-27T08:58:41.554Z,12.10
2022-09-27T09:01:16.104Z,13.60
2022-09-27T09:03:55.364Z,13.90
2022-09-27T09:06:27.197Z,13.50
2022-09-27T09:09:09.048Z,12.80
2022-09-27T09:11:57.805Z,12.80
2022-09-27T09:14:24.337Z,13.20
2022-09-27T09:16:52.707Z,14.00
2022-09-27T09:19:35.164Z,16.10
2022-09-27T09:22:20.452Z,16.40
2022-09-27T09:24:57.523Z,17.30
2022-09-27T09:28:01.463Z,18.30
2022-09-27T09:30:37.865Z,18.90
2022-09-27T09:33:05.379Z,21.10
2022-09-27T09:35:37.439Z,20.60
2022-09-27T09:38:09.100Z,20.70
2022-09-27T09:40:48.693Z,21.00
2022-09-27T09:43:18.187Z,16.80
2022-09-27T09:45:50.313Z,15.70
2022-09-27T09:48:37.262Z,14.30
2022-09-27T09:51:09.435Z,13.40
2022-09-27T09:53:44.783Z,12.70
2022-09-27T09:56:20.533Z,12.30
2022-09-27T09:58:51.060Z,12.20
2022-09-27T10:01:20.377Z,12.00
2022-09-27T10:03:47.076Z,11.90
2022-09-27T10:06:14.800Z,11.80
2022-09-27T10:08:41.603Z,11.80
2022-09-27T10:11:15.872Z,11.60
2022-09-27T10:13:42.601Z,11.40
2022-09-27T10:16:10.672Z,10.90
2022-09-27T10:18:38.659Z,10.80
2022-09-27T10:21:28.445Z,10.70
2022-09-27T10:24:13.508Z,10.70
2022-09-27T10:26:45.358Z,10.50
2022-09-27T10:29:20.952Z,10.30
2022-09-27T10:31:48.598Z,10.30
2022-09-27T10:34:30.665Z,10.20
2022-09-27T10:37:12.588Z,10.30
2022-09-27T10:39:41.339Z,10.50
2022-09-27T10:42:26.578Z,10.60
2022-09-27T10:44:54.099Z,10.80
2022-09-27T10:47:23.011Z,10.70
2022-09-27T10:49:52.695Z,10.50
2022-09-27T10:52:20.737Z,10.40
2022-09-27T10:55:06.899Z,10.50
2022-09-27T10:57:33.675Z,10.50
2022-09-27T11:00:08.357Z,11.80
2022-09-27T11:02:37.899Z,13.80
2022-09-27T11:05:04.946Z,16.20
2022-09-27T11:07:31.834Z,16.40
2022-09-27T11:10:03.124Z,16.90
2022-09-27T11:12:31.997Z,16.30
2022-09-27T11:15:02.651Z,16.50
2022-09-27T11:17:29.287Z,16.00
2022-09-27T11:20:08.963Z,17.70
2022-09-27T11:22:39.081Z,14.40
2022-09-27T11:25:17.314Z,14.00
2022-09-27T11:27:43.991Z,14.20
2022-09-27T11:30:19.377Z,13.50
2022-09-27T11:32:52.646Z,13.10
2022-09-27T11:35:26.569Z,12.80
2022-09-27T11:38:08.388Z,12.50
2022-09-27T11:40:44.760Z,12.10
2022-09-27T11:43:17.548Z,11.90
2022-09-27T11:46:15.436Z,11.90
2022-09-27T11:48:55.613Z,11.90
2022-09-27T11:51:26.580Z,11.80
2022-09-27T11:54:05.413Z,11.90
2022-09-27T11:56:41.101Z,12.00
2022-09-27T11:59:07.809Z,12.00
2022-09-27T12:01:51.120Z,12.00
2022-09-27T12:04:17.749Z,11.80
2022-09-27T12:07:00.829Z,11.70
2022-09-27T12:09:33.219Z,11.50
2022-09-27T12:12:10.853Z,11.50
2022-09-27T12:14:45.770Z,11.50
2022-09-27T12:17:14.577Z,11.30
2022-09-27T12:19:43.749Z,11.30
2022-09-27T12:22:14.118Z,11.60
2022-09-27T12:24:41.459Z,12.50
2022-09-27T12:27:16.672Z,13.60
2022-09-27T12:29:45.215Z,14.50
2022-09-27T12:32:11.836Z,15.10
2022-09-27T12:35:01.727Z,15.30
2022-09-27T12:37:37.949Z,16.00
2022-09-27T12:40:19.692Z,15.90
2022-09-27T12:42:53.036Z,15.90
2022-09-27T12:45:24.289Z,16.40
2022-09-27T12:48:05.129Z,16.30
2022-09-27T12:50:34.680Z,15.10
2022-09-27T12:53:04.475Z,14.90
2022-09-27T12:55:36.307Z,14.40
2022-09-27T12:58:12.413Z,14.10
2022-09-27T13:00:47.223Z,14.20
2022-09-27T13:03:26.354Z,14.50
2022-09-27T13:06:12.081Z,14.70
2022-09-27T13:08:57.491Z,14.50
2022-09-27T13:11:24.008Z,14.30
2022-09-27T13:13:54.872Z,14.20
2022-09-27T13:16:21.580Z,13.80
2022-09-27T13:18:49.008Z,13.60
2022-09-27T13:21:35.515Z,13.90
2022-09-27T13:24:02.324Z,14.00
2022-09-27T13:26:31.871Z,14.60
2022-09-27T13:29:03.304Z,14.90
2022-09-27T13:31:48.740Z,15.00
2022-09-27T13:34:34.008Z,14.50
2022-09-27T13:37:20.521Z,14.00
2022-09-27T13:39:47.113Z,13.80
2022-09-27T13:42:31.675Z,13.50
2022-09-27T13:45:14.898Z,13.10
2022-09-27T13:47:45.782Z,13.10
2022-09-27T13:50:16.804Z,13.00
2022-09-27T13:52:44.776Z,13.00
2022-09-27T13:55:30.609Z,12.90
2022-09-27T13:58:05.260Z,12.70
2022-09-27T14:00:39.692Z,12.60
2022-09-27T14:03:15.627Z,12.40
2022-09-27T14:05:48.912Z,12.20
2022-09-27T14:08:35.494Z,12.00
2022-09-27T14:11:03.215Z,11.80
2022-09-27T14:13:32.134Z,11.60
2022-09-27T14:16:00.455Z,11.50
2022-09-27T14:18:27.775Z,11.50
2022-09-27T14:21:08.100Z,11.50
2022-09-27T14:23:34.776Z,11.60
2022-09-27T14:26:01.404Z,11.50
2022-09-27T14:28:28.934Z,11.90
2022-09-27T14:31:14.416Z,12.40
2022-09-27T14:33:41.017Z,12.80
2022-09-27T14:36:31.866Z,12.80
2022-09-27T14:38:58.858Z,12.90
2022-09-27T14:41:26.205Z,12.60
2022-09-27T14:43:53.588Z,12.50
2022-09-27T14:46:28.069Z,12.10
2022-09-27T14:48:55.763Z,12.20
2022-09-27T14:51:27.400Z,12.10
2022-09-27T14:54:00.591Z,11.80
2022-09-27T14:56:32.328Z,11.80
2022-09-27T14:59:02.617Z,11.70
2022-09-27T15:01:30.107Z,11.60
2022-09-27T15:04:07.050Z,11.00
2022-09-27T15:06:35.387Z,11.50
2022-09-27T15:09:03.553Z,11.50
2022-09-27T15:11:34.692Z,11.50
2022-09-27T15:14:03.293Z,11.50
2022-09-27T15:16:31.150Z,11.60
2022-09-27T15:19:15.574Z,11.50
2022-09-27T15:21:42.352Z,11.40
2022-09-27T15:24:27.664Z,11.40
2022-09-27T15:26:54.514Z,11.40
2022-09-27T15:29:23.034Z,11.50
2022-09-27T15:32:06.756Z,11.50
2022-09-27T15:34:34.581Z,11.70
2022-09-27T15:37:06.329Z,11.80
2022-09-27T15:39:37.202Z,12.00
2022-09-27T15:42:15.732Z,12.00
2022-09-27T15:44:45.251Z,12.00
2022-09-27T15:47:31.913Z,11.90
2022-09-27T15:49:59.023Z,12.00
2022-09-27T15:52:45.006Z,11.90
2022-09-27T15:55:12.353Z,11.60
2022-09-27T15:57:39.348Z,11.40
2022-09-27T16:00:06.681Z,11.30
2022-09-27T16:02:33.366Z,11.20
2022-09-27T16:05:00.137Z,11.30
2022-09-27T16:07:26.724Z,11.30
2022-09-27T16:09:55.508Z,11.30
2022-09-27T16:12:22.686Z,11.30
2022-09-27T16:14:49.320Z,11.40
2022-09-27T16:17:15.944Z,14.20
2022-09-27T16:19:43.081Z,11.50
2022-09-27T16:22:09.673Z,11.40
2022-09-27T16:24:36.253Z,11.30
2022-09-27T16:27:03.877Z,11.20
2022-09-27T16:29:30.543Z,11.30
2022-09-27T16:31:57.108Z,11.10
2022-09-27T16:34:24.069Z,11.40
2022-09-27T16:36:50.740Z,11.10
2022-09-27T16:39:17.392Z,11.10
2022-09-27T16:41:44.192Z,11.10
2022-09-27T16:44:12.389Z,11.10
2022-09-27T16:46:42.833Z,11.10
2022-09-27T16:49:29.413Z,11.00
2022-09-27T16:52:02.017Z,10.90
2022-09-27T16:54:29.350Z,10.90
2022-09-27T16:56:56.626Z,10.80
2022-09-27T16:59:24.831Z,10.80
2022-09-27T17:01:51.923Z,10.80
2022-09-27T17:04:18.582Z,10.70
2022-09-27T17:06:45.155Z,10.60
2022-09-27T17:09:12.041Z,10.50
2022-09-27T17:11:38.649Z,10.30
2022-09-27T17:14:05.220Z,10.20
2022-09-27T17:16:31.977Z,10.00
2022-09-27T17:18:58.659Z,9.90
2022-09-27T17:21:25.238Z,9.90
2022-09-27T17:23:51.815Z,9.90
2022-09-27T17:26:20.428Z,9.90
2022-09-27T17:28:47.866Z,9.70
2022-09-27T17:31:15.977Z,9.50
2022-09-27T17:33:44.510Z,9.40
2022-09-27T17:36:12.359Z,9.30
2022-09-27T17:38:39.556Z,9.30
2022-09-27T17:41:09.312Z,9.40
2022-09-27T17:43:37.623Z,9.10
2022-09-27T17:46:05.710Z,9.20
2022-09-27T17:48:51.173Z,9.10
2022-09-27T17:51:17.821Z,9.10
2022-09-27T17:53:44.775Z,9.10
2022-09-27T17:56:12.178Z,9.10
2022-09-27T17:58:38.919Z,9.10
2022-09-27T18:01:07.080Z,9.10
2022-09-27T18:03:34.516Z,10.80
2022-09-27T18:06:07.880Z,9.20
2022-09-27T18:08:34.800Z,9.20
2022-09-27T18:11:08.647Z,9.20
2022-09-27T18:13:40.536Z,9.30
2022-09-27T18:16:09.108Z,9.20
2022-09-27T18:18:38.472Z,9.20
2022-09-27T18:21:05.949Z,9.30
2022-09-27T18:23:32.721Z,9.30
2022-09-27T18:25:59.399Z,9.30
2022-09-27T18:28:29.808Z,9.20
2022-09-27T18:31:01.114Z,9.20
2022-09-27T18:33:27.820Z,9.30
2022-09-27T18:35:54.380Z,9.30
2022-09-27T18:38:21.006Z,9.30
2022-09-27T18:40:56.503Z,9.40
2022-09-27T18:43:24.782Z,9.40
2022-09-27T18:45:51.669Z,9.40
2022-09-27T18:48:18.215Z,9.40
2022-09-27T18:50:45.574Z,9.50
2022-09-27T18:53:12.128Z,9.50
2022-09-27T18:55:39.868Z,9.50
2022-09-27T18:58:06.543Z,9.50
2022-09-27T19:00:33.405Z,9.40
2022-09-27T19:03:00.047Z,9.40
2022-09-27T19:05:26.765Z,9.30
2022-09-27T19:07:53.740Z,9.40
2022-09-27T19:10:20.306Z,9.50
2022-09-27T19:12:47.899Z,9.40
2022-09-27T19:15:14.718Z,9.70
2022-09-27T19:17:41.634Z,9.40
2022-09-27T19:20:08.502Z,9.40
2022-09-27T19:22:35.176Z,9.50
2022-09-27T19:25:01.740Z,9.50
2022-09-27T19:27:30.415Z,9.40
2022-09-27T19:29:59.122Z,9.40
2022-09-27T19:32:26.208Z,9.40
2022-09-27T19:34:52.796Z,9.40
2022-09-27T19:37:19.481Z,9.40
2022-09-27T19:39:46.039Z,9.30
2022-09-27T19:42:12.630Z,9.30
2022-09-27T19:44:39.174Z,9.30
2022-09-27T19:47:05.790Z,9.30
2022-09-27T19:49:32.428Z,9.30
2022-09-27T19:51:59.626Z,10.50
2022-09-27T19:54:26.209Z,9.30
2022-09-27T19:56:52.955Z,9.30
2022-09-27T19:59:19.768Z,9.40
2022-09-27T20:01:46.656Z,9.40
2022-09-27T20:04:13.386Z,9.40
2022-09-27T20:06:40.063Z,9.60
2022-09-27T20:09:06.779Z,9.40
2022-09-27T20:11:34.055Z,9.50
2022-09-27T20:14:00.821Z,9.50
2022-09-27T20:16:27.662Z,9.50
2022-09-27T20:18:58.202Z,10.30
2022-09-27T20:21:26.299Z,9.60
2022-09-27T20:23:54.127Z,9.60
2022-09-27T20:26:22.571Z,9.80
2022-09-27T20:28:50.595Z,9.50
2022-09-27T20:31:19.174Z,9.60
2022-09-27T20:33:46.968Z,9.60
2022-09-27T20:36:15.610Z,9.50
2022-09-27T20:38:46.640Z,9.40
2022-09-27T20:41:14.454Z,9.40
2022-09-27T20:43:41.083Z,9.40
2022-09-27T20:46:09.783Z,9.40
2022-09-27T20:48:38.226Z,9.30
2022-09-27T20:51:05.280Z,9.30
2022-09-27T20:53:31.875Z,9.40
2022-09-27T20:55:59.415Z,9.20
2022-09-27T20:58:26.253Z,9.30
2022-09-27T21:00:52.989Z,9.30
2022-09-27T21:03:21.854Z,9.20
2022-09-27T21:05:58.332Z,9.20
2022-09-27T21:08:25.369Z,9.20
2022-09-27T21:10:53.795Z,9.00
2022-09-27T21:13:20.883Z,9.00
2022-09-27T21:15:47.648Z,9.00
2022-09-27T21:18:14.302Z,9.00
2022-09-27T21:20:41.027Z,9.10
2022-09-27T21:23:07.624Z,9.20
2022-09-27T21:25:34.224Z,9.10
2022-09-27T21:28:04.230Z,9.10
2022-09-27T21:30:31.060Z,8.90
2022-09-27T21:32:57.877Z,8.90
2022-09-27T21:35:24.447Z,8.90
2022-09-27T21:37:51.035Z,8.90
2022-09-27T21:40:17.881Z,8.90
2022-09-27T21:42:44.537Z,8.90
2022-09-27T21:45:11.570Z,8.90
2022-09-27T21:47:38.199Z,8.90
2022-09-27T21:50:04.971Z,8.90
2022-09-27T21:52:31.559Z,8.90
2022-09-27T21:54:58.157Z,8.90
2022-09-27T21:57:24.732Z,8.80
2022-09-27T21:59:51.450Z,8.90
2022-09-27T22:02:19.132Z,8.90
2022-09-27T22:04:45.851Z,9.00
2022-09-27T22:07:12.414Z,9.70
2022-09-27T22:09:39.099Z,9.00
2022-09-27T22:12:06.379Z,9.00
2022-09-27T22:14:34.085Z,9.00
2022-09-27T22:17:00.649Z,9.10
2022-09-27T22:19:27.207Z,9.10
2022-09-27T22:21:53.781Z,9.10
2022-09-27T22:24:20.520Z,9.10
2022-09-27T22:26:49.114Z,9.00
2022-09-27T22:29:15.782Z,9.20
2022-09-27T22:31:44.171Z,9.10
2022-09-27T22:34:18.204Z,9.20
2022-09-27T22:36:44.846Z,9.30
2022-09-27T22:39:12.371Z,9.30
2022-09-27T22:41:39.015Z,9.20
2022-09-27T22:44:05.639Z,9.30
2022-09-27T22:46:32.435Z,9.30
2022-09-27T22:48:59.245Z,9.30
2022-09-27T22:51:25.819Z,9.20
2022-09-27T22:53:52.389Z,9.30
2022-09-27T22:56:19.737Z,9.30
2022-09-27T22:58:47.480Z,9.30
2022-09-27T23:01:16.851Z,9.30
2022-09-27T23:03:43.730Z,9.20
2022-09-27T23:06:10.324Z,9.10
2022-09-27T23:08:37.147Z,9.00
2022-09-27T23:11:05.205Z,8.90
2022-09-27T23:13:37.530Z,9.00
2022-09-27T23:16:05.380Z,9.00
2022-09-27T23:18:33.254Z,11.00
2022-09-27T23:21:03.131Z,9.00
2022-09-27T23:23:33.888Z,9.00
2022-09-27T23:26:04.929Z,9.00
2022-09-27T23:28:32.095Z,9.20
2022-09-27T23:31:04.876Z,9.10
2022-09-27T23:33:31.479Z,9.20
2022-09-27T23:35:59.824Z,9.20
2022-09-27T23:38:28.399Z,9.30
2022-09-27T23:40:55.045Z,9.30
2022-09-27T23:43:21.653Z,9.40
2022-09-27T23:45:48.239Z,9.40
2022-09-27T23:48:14.889Z,9.40
2022-09-27T23:50:44.011Z,9.50
2022-09-27T23:53:10.558Z,9.40
2022-09-27T23:55:37.128Z,9.40
2022-09-27T23:58:03.849Z,9.40
